sensor_id;sensor_type;location;lat;lon;timestamp;P1;durP1;ratioP1;P2;durP2;ratioP2
61391;SDS011;47261;52.892;5.738;2022-10-16T00:01:34;2.83;;;0.40;;
61391;SDS011;47261;52.892;5.738;2022-10-16T00:04:00;4.28;;;0.50;;
61391;SDS011;47261;52.892;5.738;2022-10-16T00:06:27;3.90;;;1.05;;
61391;SDS011;47261;52.892;5.738;2022-10-16T00:08:53;3.20;;;0.63;;
61391;SDS011;47261;52.892;5.738;2022-10-16T00:11:21;2.77;;;0.40;;
61391;SDS011;47261;52.892;5.738;2022-10-16T00:13:49;5.90;;;0.57;;
61391;SDS011;47261;52.892;5.738;2022-10-16T00:16:16;4.35;;;0.40;;
61391;SDS011;47261;52.892;5.738;2022-10-16T00:18:42;2.92;;;0.35;;
61391;SDS011;47261;52.892;5.738;2022-10-16T00:21:10;3.37;;;0.50;;
61391;SDS011;47261;52.892;5.738;2022-10-16T00:23:37;3.72;;;1.25;;
61391;SDS011;47261;52.892;5.738;2022-10-16T00:26:06;3.40;;;0.40;;
61391;SDS011;47261;52.892;5.738;2022-10-16T00:28:34;1.92;;;0.30;;
61391;SDS011;47261;52.892;5.738;2022-10-16T00:31:10;2.30;;;0.50;;
61391;SDS011;47261;52.892;5.738;2022-10-16T00:33:37;0.95;;;0.40;;
61391;SDS011;47261;52.892;5.738;2022-10-16T00:36:05;2.25;;;0.40;;
61391;SDS011;47261;52.892;5.738;2022-10-16T00:38:32;5.60;;;0.80;;
61391;SDS011;47261;52.892;5.738;2022-10-16T00:40:58;8.40;;;0.63;;
61391;SDS011;47261;52.892;5.738;2022-10-16T00:43:37;2.42;;;0.50;;
61391;SDS011;47261;52.892;5.738;2022-10-16T00:46:27;1.92;;;0.40;;
61391;SDS011;47261;52.892;5.738;2022-10-16T00:51:53;4.45;;;0.60;;
61391;SDS011;47261;52.892;5.738;2022-10-16T00:54:19;1.92;;;0.55;;
61391;SDS011;47261;52.892;5.738;2022-10-16T00:56:48;4.50;;;0.95;;
61391;SDS011;47261;52.892;5.738;2022-10-16T00:59:16;3.22;;;0.50;;
61391;SDS011;47261;52.892;5.738;2022-10-16T01:01:44;4.13;;;0.70;;
61391;SDS011;47261;52.892;5.738;2022-10-16T01:04:10;3.58;;;0.40;;
61391;SDS011;47261;52.892;5.738;2022-10-16T01:06:51;2.33;;;0.38;;
61391;SDS011;47261;52.892;5.738;2022-10-16T01:15:20;6.05;;;0.70;;
61391;SDS011;47261;52.892;5.738;2022-10-16T01:20:44;3.53;;;0.55;;
61391;SDS011;47261;52.892;5.738;2022-10-16T01:28:49;5.00;;;0.85;;
61391;SDS011;47261;52.892;5.738;2022-10-16T01:31:18;5.38;;;0.60;;
61391;SDS011;47261;52.892;5.738;2022-10-16T01:33:48;3.92;;;0.60;;
61391;SDS011;47261;52.892;5.738;2022-10-16T01:36:40;3.83;;;0.70;;
61391;SDS011;47261;52.892;5.738;2022-10-16T01:39:12;3.00;;;0.60;;
61391;SDS011;47261;52.892;5.738;2022-10-16T01:41:48;4.20;;;0.73;;
61391;SDS011;47261;52.892;5.738;2022-10-16T01:44:30;0.85;;;0.30;;
61391;SDS011;47261;52.892;5.738;2022-10-16T01:46:58;4.25;;;0.85;;
61391;SDS011;47261;52.892;5.738;2022-10-16T01:49:26;7.13;;;0.63;;
61391;SDS011;47261;52.892;5.738;2022-10-16T01:51:56;4.57;;;0.75;;
61391;SDS011;47261;52.892;5.738;2022-10-16T01:54:28;4.45;;;0.80;;
61391;SDS011;47261;52.892;5.738;2022-10-16T01:56:56;6.80;;;0.90;;
61391;SDS011;47261;52.892;5.738;2022-10-16T01:59:25;4.60;;;0.60;;
61391;SDS011;47261;52.892;5.738;2022-10-16T02:01:58;2.20;;;0.47;;
61391;SDS011;47261;52.892;5.738;2022-10-16T02:06:57;5.38;;;0.73;;
61391;SDS011;47261;52.892;5.738;2022-10-16T02:09:23;5.28;;;0.70;;
61391;SDS011;47261;52.892;5.738;2022-10-16T02:11:49;5.17;;;0.80;;
61391;SDS011;47261;52.892;5.738;2022-10-16T02:14:17;7.28;;;0.90;;
61391;SDS011;47261;52.892;5.738;2022-10-16T02:16:44;2.55;;;0.60;;
61391;SDS011;47261;52.892;5.738;2022-10-16T02:19:11;5.78;;;0.80;;
61391;SDS011;47261;52.892;5.738;2022-10-16T02:21:44;4.73;;;0.63;;
61391;SDS011;47261;52.892;5.738;2022-10-16T02:27:09;3.67;;;0.57;;
61391;SDS011;47261;52.892;5.738;2022-10-16T02:29:41;1.77;;;0.50;;
61391;SDS011;47261;52.892;5.738;2022-10-16T02:32:15;3.10;;;0.47;;
61391;SDS011;47261;52.892;5.738;2022-10-16T02:34:44;1.47;;;0.50;;
61391;SDS011;47261;52.892;5.738;2022-10-16T02:37:12;3.45;;;0.60;;
61391;SDS011;47261;52.892;5.738;2022-10-16T02:39:38;3.85;;;0.60;;
61391;SDS011;47261;52.892;5.738;2022-10-16T02:42:09;4.60;;;0.50;;
61391;SDS011;47261;52.892;5.738;2022-10-16T02:44:36;2.37;;;0.53;;
61391;SDS011;47261;52.892;5.738;2022-10-16T02:47:02;1.65;;;0.30;;
61391;SDS011;47261;52.892;5.738;2022-10-16T02:49:27;4.23;;;0.50;;
61391;SDS011;47261;52.892;5.738;2022-10-16T02:51:53;2.88;;;0.70;;
61391;SDS011;47261;52.892;5.738;2022-10-16T02:54:18;1.70;;;0.37;;
61391;SDS011;47261;52.892;5.738;2022-10-16T02:56:44;1.73;;;0.40;;
61391;SDS011;47261;52.892;5.738;2022-10-16T02:59:10;5.00;;;0.70;;
61391;SDS011;47261;52.892;5.738;2022-10-16T03:01:35;2.63;;;0.57;;
61391;SDS011;47261;52.892;5.738;2022-10-16T03:04:01;7.18;;;0.63;;
61391;SDS011;47261;52.892;5.738;2022-10-16T03:06:26;1.17;;;0.40;;
61391;SDS011;47261;52.892;5.738;2022-10-16T03:08:52;2.88;;;0.40;;
61391;SDS011;47261;52.892;5.738;2022-10-16T03:11:18;3.43;;;0.60;;
61391;SDS011;47261;52.892;5.738;2022-10-16T03:13:43;3.20;;;0.50;;
61391;SDS011;47261;52.892;5.738;2022-10-16T03:16:09;3.17;;;0.73;;
61391;SDS011;47261;52.892;5.738;2022-10-16T03:18:34;2.00;;;0.43;;
61391;SDS011;47261;52.892;5.738;2022-10-16T03:21:00;5.32;;;0.50;;
61391;SDS011;47261;52.892;5.738;2022-10-16T03:23:26;2.83;;;0.40;;
61391;SDS011;47261;52.892;5.738;2022-10-16T03:25:51;1.85;;;0.47;;
61391;SDS011;47261;52.892;5.738;2022-10-16T03:28:17;2.57;;;0.40;;
61391;SDS011;47261;52.892;5.738;2022-10-16T03:30:43;2.97;;;0.60;;
61391;SDS011;47261;52.892;5.738;2022-10-16T03:33:09;1.83;;;0.40;;
61391;SDS011;47261;52.892;5.738;2022-10-16T03:35:34;2.00;;;0.50;;
61391;SDS011;47261;52.892;5.738;2022-10-16T03:38:00;2.03;;;0.50;;
61391;SDS011;47261;52.892;5.738;2022-10-16T03:40:26;3.43;;;0.60;;
61391;SDS011;47261;52.892;5.738;2022-10-16T03:42:51;3.50;;;0.68;;
61391;SDS011;47261;52.892;5.738;2022-10-16T03:45:20;1.10;;;0.20;;
61391;SDS011;47261;52.892;5.738;2022-10-16T03:47:46;2.97;;;0.40;;
61391;SDS011;47261;52.892;5.738;2022-10-16T03:50:12;4.55;;;0.40;;
61391;SDS011;47261;52.892;5.738;2022-10-16T03:52:38;3.03;;;0.47;;
61391;SDS011;47261;52.892;5.738;2022-10-16T03:55:03;3.43;;;0.40;;
61391;SDS011;47261;52.892;5.738;2022-10-16T03:57:29;1.05;;;0.38;;
61391;SDS011;47261;52.892;5.738;2022-10-16T03:59:55;3.42;;;0.63;;
61391;SDS011;47261;52.892;5.738;2022-10-16T04:02:20;2.77;;;0.60;;
61391;SDS011;47261;52.892;5.738;2022-10-16T04:04:46;2.20;;;0.43;;
61391;SDS011;47261;52.892;5.738;2022-10-16T04:07:12;1.48;;;0.40;;
61391;SDS011;47261;52.892;5.738;2022-10-16T04:09:37;4.20;;;0.57;;
61391;SDS011;47261;52.892;5.738;2022-10-16T04:12:03;3.30;;;0.70;;
61391;SDS011;47261;52.892;5.738;2022-10-16T04:14:28;3.77;;;0.50;;
61391;SDS011;47261;52.892;5.738;2022-10-16T04:16:54;2.83;;;0.70;;
61391;SDS011;47261;52.892;5.738;2022-10-16T04:19:20;3.10;;;0.70;;
61391;SDS011;47261;52.892;5.738;2022-10-16T04:21:45;2.83;;;0.50;;
61391;SDS011;47261;52.892;5.738;2022-10-16T04:24:11;3.78;;;0.90;;
61391;SDS011;47261;52.892;5.738;2022-10-16T04:26:37;3.60;;;0.50;;
61391;SDS011;47261;52.892;5.738;2022-10-16T04:29:02;5.10;;;0.80;;
61391;SDS011;47261;52.892;5.738;2022-10-16T04:31:28;3.30;;;0.50;;
61391;SDS011;47261;52.892;5.738;2022-10-16T04:33:54;3.63;;;0.80;;
61391;SDS011;47261;52.892;5.738;2022-10-16T04:36:19;2.87;;;0.70;;
61391;SDS011;47261;52.892;5.738;2022-10-16T04:38:45;4.78;;;0.80;;
61391;SDS011;47261;52.892;5.738;2022-10-16T04:41:10;2.30;;;0.57;;
61391;SDS011;47261;52.892;5.738;2022-10-16T04:43:36;5.80;;;0.90;;
61391;SDS011;47261;52.892;5.738;2022-10-16T04:46:02;2.72;;;0.90;;
61391;SDS011;47261;52.892;5.738;2022-10-16T04:48:29;4.05;;;0.65;;
61391;SDS011;47261;52.892;5.738;2022-10-16T04:50:55;3.97;;;0.80;;
61391;SDS011;47261;52.892;5.738;2022-10-16T04:53:21;2.47;;;0.85;;
61391;SDS011;47261;52.892;5.738;2022-10-16T04:55:47;2.95;;;1.00;;
61391;SDS011;47261;52.892;5.738;2022-10-16T04:58:12;1.67;;;0.60;;
61391;SDS011;47261;52.892;5.738;2022-10-16T05:00:38;5.60;;;1.13;;
61391;SDS011;47261;52.892;5.738;2022-10-16T05:03:04;4.18;;;0.65;;
61391;SDS011;47261;52.892;5.738;2022-10-16T05:05:33;4.68;;;0.60;;
61391;SDS011;47261;52.892;5.738;2022-10-16T05:07:59;4.60;;;1.15;;
61391;SDS011;47261;52.892;5.738;2022-10-16T05:10:24;6.87;;;1.17;;
61391;SDS011;47261;52.892;5.738;2022-10-16T05:12:50;5.60;;;0.73;;
61391;SDS011;47261;52.892;5.738;2022-10-16T05:15:16;4.63;;;0.90;;
61391;SDS011;47261;52.892;5.738;2022-10-16T05:17:42;3.85;;;1.10;;
61391;SDS011;47261;52.892;5.738;2022-10-16T05:20:08;4.03;;;0.83;;
61391;SDS011;47261;52.892;5.738;2022-10-16T05:22:33;6.47;;;1.20;;
61391;SDS011;47261;52.892;5.738;2022-10-16T05:24:59;5.90;;;0.80;;
61391;SDS011;47261;52.892;5.738;2022-10-16T05:27:25;3.80;;;0.80;;
61391;SDS011;47261;52.892;5.738;2022-10-16T05:29:50;2.17;;;0.77;;
61391;SDS011;47261;52.892;5.738;2022-10-16T05:32:17;2.92;;;0.95;;
61391;SDS011;47261;52.892;5.738;2022-10-16T05:34:44;4.00;;;0.60;;
61391;SDS011;47261;52.892;5.738;2022-10-16T05:37:09;3.03;;;0.80;;
61391;SDS011;47261;52.892;5.738;2022-10-16T05:39:36;4.55;;;0.70;;
61391;SDS011;47261;52.892;5.738;2022-10-16T05:42:03;4.47;;;0.65;;
61391;SDS011;47261;52.892;5.738;2022-10-16T05:44:29;3.35;;;0.75;;
61391;SDS011;47261;52.892;5.738;2022-10-16T05:46:55;6.73;;;1.10;;
61391;SDS011;47261;52.892;5.738;2022-10-16T05:49:20;5.85;;;1.08;;
61391;SDS011;47261;52.892;5.738;2022-10-16T05:51:46;2.77;;;0.80;;
61391;SDS011;47261;52.892;5.738;2022-10-16T05:54:11;5.20;;;0.80;;
61391;SDS011;47261;52.892;5.738;2022-10-16T05:56:37;4.15;;;0.65;;
61391;SDS011;47261;52.892;5.738;2022-10-16T05:59:03;2.90;;;0.80;;
61391;SDS011;47261;52.892;5.738;2022-10-16T06:01:29;3.13;;;0.50;;
61391;SDS011;47261;52.892;5.738;2022-10-16T06:03:56;4.90;;;0.77;;
61391;SDS011;47261;52.892;5.738;2022-10-16T06:06:23;4.15;;;0.70;;
61391;SDS011;47261;52.892;5.738;2022-10-16T06:08:51;5.75;;;0.85;;
61391;SDS011;47261;52.892;5.738;2022-10-16T06:11:19;2.93;;;0.70;;
61391;SDS011;47261;52.892;5.738;2022-10-16T06:13:53;2.85;;;0.50;;
61391;SDS011;47261;52.892;5.738;2022-10-16T06:16:21;3.83;;;0.90;;
61391;SDS011;47261;52.892;5.738;2022-10-16T06:18:50;3.35;;;0.60;;
61391;SDS011;47261;52.892;5.738;2022-10-16T06:21:17;5.50;;;0.82;;
61391;SDS011;47261;52.892;5.738;2022-10-16T06:23:44;3.60;;;0.80;;
61391;SDS011;47261;52.892;5.738;2022-10-16T06:26:15;5.40;;;0.82;;
61391;SDS011;47261;52.892;5.738;2022-10-16T06:28:42;3.42;;;0.80;;
61391;SDS011;47261;52.892;5.738;2022-10-16T06:31:08;3.27;;;0.83;;
61391;SDS011;47261;52.892;5.738;2022-10-16T06:33:36;7.20;;;0.80;;
61391;SDS011;47261;52.892;5.738;2022-10-16T06:36:06;4.15;;;0.82;;
61391;SDS011;47261;52.892;5.738;2022-10-16T06:38:34;6.05;;;1.00;;
61391;SDS011;47261;52.892;5.738;2022-10-16T06:41:00;4.38;;;0.98;;
61391;SDS011;47261;52.892;5.738;2022-10-16T06:43:26;2.70;;;0.50;;
61391;SDS011;47261;52.892;5.738;2022-10-16T06:45:55;3.35;;;0.77;;
61391;SDS011;47261;52.892;5.738;2022-10-16T06:48:22;5.60;;;0.80;;
61391;SDS011;47261;52.892;5.738;2022-10-16T06:51:01;4.38;;;0.73;;
61391;SDS011;47261;52.892;5.738;2022-10-16T06:53:33;6.28;;;1.00;;
61391;SDS011;47261;52.892;5.738;2022-10-16T06:56:06;2.27;;;0.60;;
61391;SDS011;47261;52.892;5.738;2022-10-16T06:58:33;3.55;;;1.08;;
61391;SDS011;47261;52.892;5.738;2022-10-16T07:00:59;6.82;;;1.02;;
61391;SDS011;47261;52.892;5.738;2022-10-16T07:03:24;2.03;;;0.57;;
61391;SDS011;47261;52.892;5.738;2022-10-16T07:05:50;3.10;;;0.57;;
61391;SDS011;47261;52.892;5.738;2022-10-16T07:08:16;9.40;;;0.93;;
61391;SDS011;47261;52.892;5.738;2022-10-16T07:10:41;9.93;;;0.60;;
61391;SDS011;47261;52.892;5.738;2022-10-16T07:13:07;3.17;;;0.68;;
61391;SDS011;47261;52.892;5.738;2022-10-16T07:15:33;2.50;;;0.77;;
61391;SDS011;47261;52.892;5.738;2022-10-16T07:17:58;2.72;;;0.60;;
61391;SDS011;47261;52.892;5.738;2022-10-16T07:20:24;3.77;;;0.80;;
61391;SDS011;47261;52.892;5.738;2022-10-16T07:22:50;7.40;;;1.00;;
61391;SDS011;47261;52.892;5.738;2022-10-16T07:25:16;7.53;;;0.57;;
61391;SDS011;47261;52.892;5.738;2022-10-16T07:27:42;4.63;;;0.57;;
61391;SDS011;47261;52.892;5.738;2022-10-16T07:30:07;4.70;;;0.52;;
61391;SDS011;47261;52.892;5.738;2022-10-16T07:32:33;3.00;;;0.50;;
61391;SDS011;47261;52.892;5.738;2022-10-16T07:34:59;5.32;;;0.50;;
61391;SDS011;47261;52.892;5.738;2022-10-16T07:37:25;3.50;;;0.80;;
61391;SDS011;47261;52.892;5.738;2022-10-16T07:39:50;4.22;;;0.55;;
61391;SDS011;47261;52.892;5.738;2022-10-16T07:42:16;8.07;;;0.97;;
61391;SDS011;47261;52.892;5.738;2022-10-16T07:44:42;3.03;;;0.50;;
61391;SDS011;47261;52.892;5.738;2022-10-16T07:47:08;5.28;;;0.82;;
61391;SDS011;47261;52.892;5.738;2022-10-16T07:49:34;6.23;;;0.70;;
61391;SDS011;47261;52.892;5.738;2022-10-16T07:51:59;3.15;;;0.80;;
61391;SDS011;47261;52.892;5.738;2022-10-16T07:54:25;5.63;;;0.63;;
61391;SDS011;47261;52.892;5.738;2022-10-16T07:56:51;6.65;;;1.00;;
61391;SDS011;47261;52.892;5.738;2022-10-16T07:59:16;7.67;;;1.07;;
61391;SDS011;47261;52.892;5.738;2022-10-16T08:01:42;3.03;;;0.85;;
61391;SDS011;47261;52.892;5.738;2022-10-16T08:04:08;6.47;;;0.87;;
61391;SDS011;47261;52.892;5.738;2022-10-16T08:06:35;4.20;;;0.70;;
61391;SDS011;47261;52.892;5.738;2022-10-16T08:09:02;2.70;;;0.80;;
61391;SDS011;47261;52.892;5.738;2022-10-16T08:11:28;4.53;;;0.90;;
61391;SDS011;47261;52.892;5.738;2022-10-16T08:13:54;5.93;;;1.00;;
61391;SDS011;47261;52.892;5.738;2022-10-16T08:16:19;7.97;;;1.30;;
61391;SDS011;47261;52.892;5.738;2022-10-16T08:18:45;3.20;;;0.67;;
61391;SDS011;47261;52.892;5.738;2022-10-16T08:21:15;6.13;;;0.70;;
61391;SDS011;47261;52.892;5.738;2022-10-16T08:23:41;5.10;;;0.98;;
61391;SDS011;47261;52.892;5.738;2022-10-16T08:26:08;5.50;;;1.07;;
61391;SDS011;47261;52.892;5.738;2022-10-16T08:28:34;4.03;;;0.90;;
61391;SDS011;47261;52.892;5.738;2022-10-16T08:31:10;6.28;;;1.00;;
61391;SDS011;47261;52.892;5.738;2022-10-16T08:33:40;6.10;;;0.83;;
61391;SDS011;47261;52.892;5.738;2022-10-16T08:36:08;5.13;;;0.68;;
61391;SDS011;47261;52.892;5.738;2022-10-16T08:38:36;6.25;;;0.68;;
61391;SDS011;47261;52.892;5.738;2022-10-16T08:46:37;9.90;;;1.03;;
61391;SDS011;47261;52.892;5.738;2022-10-16T08:49:15;11.52;;;1.40;;
61391;SDS011;47261;52.892;5.738;2022-10-16T08:51:41;3.70;;;0.80;;
61391;SDS011;47261;52.892;5.738;2022-10-16T08:54:15;12.80;;;1.20;;
61391;SDS011;47261;52.892;5.738;2022-10-16T08:57:01;5.53;;;1.10;;
61391;SDS011;47261;52.892;5.738;2022-10-16T08:59:41;4.15;;;0.60;;
61391;SDS011;47261;52.892;5.738;2022-10-16T09:04:57;6.68;;;1.00;;
61391;SDS011;47261;52.892;5.738;2022-10-16T09:07:34;4.10;;;0.63;;
61391;SDS011;47261;52.892;5.738;2022-10-16T09:10:45;4.97;;;1.00;;
61391;SDS011;47261;52.892;5.738;2022-10-16T09:16:04;8.13;;;0.90;;
61391;SDS011;47261;52.892;5.738;2022-10-16T09:18:48;4.35;;;1.10;;
61391;SDS011;47261;52.892;5.738;2022-10-16T09:21:21;6.70;;;0.93;;
61391;SDS011;47261;52.892;5.738;2022-10-16T09:24:37;8.02;;;1.05;;
61391;SDS011;47261;52.892;5.738;2022-10-16T09:26:49;7.45;;;0.80;;
61391;SDS011;47261;52.892;5.738;2022-10-16T09:29:18;6.40;;;1.13;;
61391;SDS011;47261;52.892;5.738;2022-10-16T09:31:45;7.57;;;0.75;;
61391;SDS011;47261;52.892;5.738;2022-10-16T09:34:20;5.50;;;1.27;;
61391;SDS011;47261;52.892;5.738;2022-10-16T09:36:55;6.25;;;0.77;;
61391;SDS011;47261;52.892;5.738;2022-10-16T09:39:23;7.22;;;1.30;;
61391;SDS011;47261;52.892;5.738;2022-10-16T09:41:49;7.17;;;0.90;;
61391;SDS011;47261;52.892;5.738;2022-10-16T09:44:17;2.75;;;0.60;;
61391;SDS011;47261;52.892;5.738;2022-10-16T09:46:48;4.93;;;0.85;;
61391;SDS011;47261;52.892;5.738;2022-10-16T09:49:23;7.47;;;0.80;;
61391;SDS011;47261;52.892;5.738;2022-10-16T09:51:51;4.50;;;0.60;;
61391;SDS011;47261;52.892;5.738;2022-10-16T09:54:35;5.63;;;0.93;;
61391;SDS011;47261;52.892;5.738;2022-10-16T09:57:04;7.37;;;0.90;;
61391;SDS011;47261;52.892;5.738;2022-10-16T09:59:31;4.82;;;0.93;;
61391;SDS011;47261;52.892;5.738;2022-10-16T10:02:01;3.20;;;0.80;;
61391;SDS011;47261;52.892;5.738;2022-10-16T10:04:37;9.55;;;1.27;;
61391;SDS011;47261;52.892;5.738;2022-10-16T10:07:06;11.30;;;1.20;;
61391;SDS011;47261;52.892;5.738;2022-10-16T10:09:42;3.75;;;0.85;;
61391;SDS011;47261;52.892;5.738;2022-10-16T10:15:12;8.57;;;0.88;;
61391;SDS011;47261;52.892;5.738;2022-10-16T10:17:46;7.32;;;1.42;;
61391;SDS011;47261;52.892;5.738;2022-10-16T10:23:19;6.28;;;0.93;;
61391;SDS011;47261;52.892;5.738;2022-10-16T10:36:30;5.03;;;1.00;;
61391;SDS011;47261;52.892;5.738;2022-10-16T10:39:00;9.90;;;1.38;;
61391;SDS011;47261;52.892;5.738;2022-10-16T10:41:36;6.17;;;1.03;;
61391;SDS011;47261;52.892;5.738;2022-10-16T11:06:48;7.25;;;0.95;;
61391;SDS011;47261;52.892;5.738;2022-10-16T11:09:22;3.90;;;0.80;;
61391;SDS011;47261;52.892;5.738;2022-10-16T11:17:25;15.25;;;1.10;;
61391;SDS011;47261;52.892;5.738;2022-10-16T11:19:58;4.13;;;0.47;;
61391;SDS011;47261;52.892;5.738;2022-10-16T11:22:37;3.30;;;0.50;;
61391;SDS011;47261;52.892;5.738;2022-10-16T11:30:44;3.92;;;0.90;;
61391;SDS011;47261;52.892;5.738;2022-10-16T11:33:32;6.60;;;0.80;;
61391;SDS011;47261;52.892;5.738;2022-10-16T11:41:33;7.50;;;0.68;;
61391;SDS011;47261;52.892;5.738;2022-10-16T11:46:38;4.55;;;0.50;;
61391;SDS011;47261;52.892;5.738;2022-10-16T11:49:18;7.20;;;0.90;;
61391;SDS011;47261;52.892;5.738;2022-10-16T11:51:56;5.00;;;0.70;;
61391;SDS011;47261;52.892;5.738;2022-10-16T11:57:32;10.82;;;0.82;;
61391;SDS011;47261;52.892;5.738;2022-10-16T12:02:40;4.53;;;0.60;;
61391;SDS011;47261;52.892;5.738;2022-10-16T12:05:24;10.93;;;1.00;;
61391;SDS011;47261;52.892;5.738;2022-10-16T12:08:10;9.52;;;1.05;;
61391;SDS011;47261;52.892;5.738;2022-10-16T12:10:37;7.10;;;1.17;;
61391;SDS011;47261;52.892;5.738;2022-10-16T12:13:25;5.00;;;0.80;;
61391;SDS011;47261;52.892;5.738;2022-10-16T12:16:03;9.83;;;0.80;;
61391;SDS011;47261;52.892;5.738;2022-10-16T12:18:42;14.13;;;1.27;;
61391;SDS011;47261;52.892;5.738;2022-10-16T12:21:09;8.68;;;1.08;;
61391;SDS011;47261;52.892;5.738;2022-10-16T12:24:00;14.95;;;1.13;;
61391;SDS011;47261;52.892;5.738;2022-10-16T12:28:56;6.33;;;0.57;;
61391;SDS011;47261;52.892;5.738;2022-10-16T12:31:37;8.38;;;0.85;;
61391;SDS011;47261;52.892;5.738;2022-10-16T12:34:14;9.02;;;1.20;;
61391;SDS011;47261;52.892;5.738;2022-10-16T12:37:07;9.75;;;1.00;;
61391;SDS011;47261;52.892;5.738;2022-10-16T12:39:36;8.52;;;0.80;;
61391;SDS011;47261;52.892;5.738;2022-10-16T12:42:04;7.10;;;1.27;;
61391;SDS011;47261;52.892;5.738;2022-10-16T12:44:44;6.57;;;1.35;;
61391;SDS011;47261;52.892;5.738;2022-10-16T12:47:18;9.23;;;1.10;;
61391;SDS011;47261;52.892;5.738;2022-10-16T12:49:50;8.50;;;1.33;;
61391;SDS011;47261;52.892;5.738;2022-10-16T12:52:25;11.32;;;1.17;;
61391;SDS011;47261;52.892;5.738;2022-10-16T12:55:02;4.63;;;0.63;;
61391;SDS011;47261;52.892;5.738;2022-10-16T13:00:13;6.80;;;0.70;;
61391;SDS011;47261;52.892;5.738;2022-10-16T13:03:43;9.73;;;0.70;;
61391;SDS011;47261;52.892;5.738;2022-10-16T13:09:02;3.28;;;0.50;;
61391;SDS011;47261;52.892;5.738;2022-10-16T13:17:20;5.43;;;1.07;;
61391;SDS011;47261;52.892;5.738;2022-10-16T13:20:03;7.05;;;1.25;;
61391;SDS011;47261;52.892;5.738;2022-10-16T13:25:34;12.30;;;0.82;;
61391;SDS011;47261;52.892;5.738;2022-10-16T13:28:05;5.53;;;0.75;;
61391;SDS011;47261;52.892;5.738;2022-10-16T13:30:42;7.90;;;0.73;;
61391;SDS011;47261;52.892;5.738;2022-10-16T13:36:04;10.15;;;1.08;;
61391;SDS011;47261;52.892;5.738;2022-10-16T13:38:31;8.73;;;1.02;;
61391;SDS011;47261;52.892;5.738;2022-10-16T13:45:59;8.02;;;0.82;;
61391;SDS011;47261;52.892;5.738;2022-10-16T13:48:25;5.53;;;0.70;;
61391;SDS011;47261;52.892;5.738;2022-10-16T13:51:00;6.73;;;0.73;;
61391;SDS011;47261;52.892;5.738;2022-10-16T13:53:29;11.25;;;1.30;;
61391;SDS011;47261;52.892;5.738;2022-10-16T13:55:59;7.43;;;1.05;;
61391;SDS011;47261;52.892;5.738;2022-10-16T13:58:26;6.72;;;1.00;;
61391;SDS011;47261;52.892;5.738;2022-10-16T14:00:56;13.17;;;0.83;;
61391;SDS011;47261;52.892;5.738;2022-10-16T14:03:28;6.05;;;0.70;;
61391;SDS011;47261;52.892;5.738;2022-10-16T14:05:56;11.57;;;1.50;;
61391;SDS011;47261;52.892;5.738;2022-10-16T14:08:25;7.35;;;1.15;;
61391;SDS011;47261;52.892;5.738;2022-10-16T14:10:52;6.57;;;0.70;;
61391;SDS011;47261;52.892;5.738;2022-10-16T14:13:34;5.00;;;0.37;;
61391;SDS011;47261;52.892;5.738;2022-10-16T14:16:09;9.65;;;0.90;;
61391;SDS011;47261;52.892;5.738;2022-10-16T14:18:41;7.65;;;0.65;;
61391;SDS011;47261;52.892;5.738;2022-10-16T14:21:21;11.70;;;1.33;;
61391;SDS011;47261;52.892;5.738;2022-10-16T14:23:46;12.50;;;1.07;;
61391;SDS011;47261;52.892;5.738;2022-10-16T14:26:13;13.88;;;1.20;;
61391;SDS011;47261;52.892;5.738;2022-10-16T14:28:41;12.07;;;1.20;;
61391;SDS011;47261;52.892;5.738;2022-10-16T14:31:27;13.73;;;0.90;;
61391;SDS011;47261;52.892;5.738;2022-10-16T14:33:55;13.10;;;1.70;;
61391;SDS011;47261;52.892;5.738;2022-10-16T14:36:21;12.50;;;0.80;;
61391;SDS011;47261;52.892;5.738;2022-10-16T14:38:49;14.40;;;1.45;;
61391;SDS011;47261;52.892;5.738;2022-10-16T14:41:23;13.93;;;1.33;;
61391;SDS011;47261;52.892;5.738;2022-10-16T14:43:50;10.55;;;0.90;;
61391;SDS011;47261;52.892;5.738;2022-10-16T14:46:22;13.90;;;0.90;;
61391;SDS011;47261;52.892;5.738;2022-10-16T14:48:58;6.72;;;0.95;;
61391;SDS011;47261;52.892;5.738;2022-10-16T14:51:27;9.57;;;1.27;;
61391;SDS011;47261;52.892;5.738;2022-10-16T14:53:53;15.67;;;1.23;;
61391;SDS011;47261;52.892;5.738;2022-10-16T14:56:23;9.50;;;0.90;;
61391;SDS011;47261;52.892;5.738;2022-10-16T14:58:50;13.43;;;1.30;;
61391;SDS011;47261;52.892;5.738;2022-10-16T15:01:17;14.90;;;1.00;;
61391;SDS011;47261;52.892;5.738;2022-10-16T15:03:43;14.63;;;1.38;;
61391;SDS011;47261;52.892;5.738;2022-10-16T15:06:12;9.65;;;1.40;;
61391;SDS011;47261;52.892;5.738;2022-10-16T15:08:41;17.83;;;1.63;;
61391;SDS011;47261;52.892;5.738;2022-10-16T15:11:09;14.77;;;1.37;;
61391;SDS011;47261;52.892;5.738;2022-10-16T15:13:46;12.82;;;1.13;;
61391;SDS011;47261;52.892;5.738;2022-10-16T15:16:13;14.70;;;1.67;;
61391;SDS011;47261;52.892;5.738;2022-10-16T15:18:40;12.55;;;1.65;;
61391;SDS011;47261;52.892;5.738;2022-10-16T15:21:06;15.48;;;1.60;;
61391;SDS011;47261;52.892;5.738;2022-10-16T15:23:32;12.73;;;1.20;;
61391;SDS011;47261;52.892;5.738;2022-10-16T15:25:58;15.67;;;1.37;;
61391;SDS011;47261;52.892;5.738;2022-10-16T15:28:24;14.85;;;1.50;;
61391;SDS011;47261;52.892;5.738;2022-10-16T15:30:55;14.45;;;1.58;;
61391;SDS011;47261;52.892;5.738;2022-10-16T15:33:22;11.18;;;1.48;;
61391;SDS011;47261;52.892;5.738;2022-10-16T15:35:52;11.27;;;1.77;;
61391;SDS011;47261;52.892;5.738;2022-10-16T15:38:19;10.95;;;1.50;;
61391;SDS011;47261;52.892;5.738;2022-10-16T15:40:46;14.70;;;1.60;;
61391;SDS011;47261;52.892;5.738;2022-10-16T15:43:13;16.50;;;4.45;;
61391;SDS011;47261;52.892;5.738;2022-10-16T15:45:39;19.40;;;5.07;;
61391;SDS011;47261;52.892;5.738;2022-10-16T15:48:04;15.48;;;4.35;;
61391;SDS011;47261;52.892;5.738;2022-10-16T15:50:30;14.70;;;3.63;;
61391;SDS011;47261;52.892;5.738;2022-10-16T15:52:57;16.57;;;2.97;;
61391;SDS011;47261;52.892;5.738;2022-10-16T15:55:22;13.57;;;2.45;;
61391;SDS011;47261;52.892;5.738;2022-10-16T15:57:48;15.30;;;4.60;;
61391;SDS011;47261;52.892;5.738;2022-10-16T16:00:15;15.70;;;3.40;;
61391;SDS011;47261;52.892;5.738;2022-10-16T16:02:43;11.30;;;3.17;;
61391;SDS011;47261;52.892;5.738;2022-10-16T16:05:09;12.83;;;2.80;;
61391;SDS011;47261;52.892;5.738;2022-10-16T16:07:36;13.57;;;1.92;;
61391;SDS011;47261;52.892;5.738;2022-10-16T16:10:03;12.75;;;1.40;;
61391;SDS011;47261;52.892;5.738;2022-10-16T16:12:31;12.20;;;1.60;;
61391;SDS011;47261;52.892;5.738;2022-10-16T16:14:57;9.77;;;1.20;;
61391;SDS011;47261;52.892;5.738;2022-10-16T16:17:23;12.87;;;2.07;;
61391;SDS011;47261;52.892;5.738;2022-10-16T16:19:49;15.23;;;1.75;;
61391;SDS011;47261;52.892;5.738;2022-10-16T16:22:15;13.43;;;1.70;;
61391;SDS011;47261;52.892;5.738;2022-10-16T16:24:41;14.57;;;1.40;;
61391;SDS011;47261;52.892;5.738;2022-10-16T16:27:07;15.85;;;2.05;;
61391;SDS011;47261;52.892;5.738;2022-10-16T16:29:33;12.07;;;1.60;;
61391;SDS011;47261;52.892;5.738;2022-10-16T16:31:59;14.30;;;1.23;;
61391;SDS011;47261;52.892;5.738;2022-10-16T16:34:26;10.60;;;1.00;;
61391;SDS011;47261;52.892;5.738;2022-10-16T16:36:52;10.85;;;1.17;;
61391;SDS011;47261;52.892;5.738;2022-10-16T16:39:18;15.65;;;1.10;;
61391;SDS011;47261;52.892;5.738;2022-10-16T16:41:44;13.23;;;1.33;;
61391;SDS011;47261;52.892;5.738;2022-10-16T16:44:13;12.55;;;1.10;;
61391;SDS011;47261;52.892;5.738;2022-10-16T16:46:40;11.73;;;1.90;;
61391;SDS011;47261;52.892;5.738;2022-10-16T16:49:08;14.70;;;1.20;;
61391;SDS011;47261;52.892;5.738;2022-10-16T16:51:37;14.27;;;1.27;;
61391;SDS011;47261;52.892;5.738;2022-10-16T16:54:04;17.67;;;1.45;;
61391;SDS011;47261;52.892;5.738;2022-10-16T16:56:30;11.07;;;1.10;;
61391;SDS011;47261;52.892;5.738;2022-10-16T16:58:56;13.40;;;1.27;;
61391;SDS011;47261;52.892;5.738;2022-10-16T17:01:23;13.73;;;1.35;;